Climatologie pour Saint-Brevin les Pins
Jour • Résumé pour décembre 1, 2017 Système :  Métrique    Anglais   Mixte
« - 1 jour
+ 1 jour »
Jour Semaine Mois Année Personnalisé
  Maximum : Minimum : Moyenne :
Température sous abri : 8.9 °C 0.1 °C 3.4 °C
Point de rosée : 4.4 °C -0.6 °C 1.8 °C
Humidité : 96 % 70 % 90 %
Vitesse du vent : 17.7 km/h 0.0 km/h 6.2 km/h
Rafale : 29.0 km/h - -
Direction :- - WSW
Pression : 1025.3 hPa 1014.8 hPa -
Précipitations : 0.3 mm    
Historical Graphs
 
 
Tableau de données pour décembre 1, 2017
Heure Tempé Pt rosée Pression Vent Vitesse Rafale Humidité Taux pluie (/hr) Soleil
00:00 0.7 °C -0.2 °C 1014.8 hPa Calm   3.2 km/h 94 % 0.0 mm 0 W/m2
00:10 0.4 °C -0.4 °C 1014.8 hPa Calm   3.2 km/h 94 % 0.0 mm 0 W/m2
00:15 0.3 °C -0.4 °C 1015.1 hPa Calm   3.2 km/h 95 % 0.0 mm 0 W/m2
00:20 0.4 °C -0.3 °C 1015.1 hPa Calm   3.2 km/h 95 % 0.0 mm 0 W/m2
00:25 0.4 °C -0.3 °C 1015.1 hPa Calm   3.2 km/h 95 % 0.0 mm 0 W/m2
00:30 0.3 °C -0.4 °C 1015.1 hPa North 3.2 km/h 4.8 km/h 95 % 0.0 mm 0 W/m2
00:40 0.3 °C -0.4 °C 1015.1 hPa Calm   4.8 km/h 95 % 0.0 mm 0 W/m2
00:45 0.1 °C -0.6 °C 1015.1 hPa Calm   3.2 km/h 95 % 0.0 mm 0 W/m2
00:50 0.2 °C -0.5 °C 1015.1 hPa Calm   8.0 km/h 95 % 0.0 mm 0 W/m2
00:55 0.1 °C -0.6 °C 1015.1 hPa NNW 3.2 km/h 8.0 km/h 95 % 0.0 mm 0 W/m2
01:00 0.3 °C -0.3 °C 1015.5 hPa NNW 6.4 km/h 9.7 km/h 96 % 0.0 mm 0 W/m2
01:05 0.6 °C 0.0 °C 1015.1 hPa NNW 1.6 km/h 9.7 km/h 96 % 0.0 mm 0 W/m2
01:15 0.6 °C 0.0 °C 1015.1 hPa NNW 4.8 km/h 12.9 km/h 96 % 0.0 mm 0 W/m2
01:25 0.7 °C 0.2 °C 1015.5 hPa North 3.2 km/h 14.5 km/h 96 % 0.0 mm 0 W/m2
01:30 0.8 °C 0.3 °C 1015.1 hPa Calm   14.5 km/h 96 % 0.0 mm 0 W/m2
01:45 0.8 °C 0.1 °C 1015.1 hPa NW 8.0 km/h 11.3 km/h 95 % 0.0 mm 0 W/m2
01:50 0.8 °C 0.1 °C 1015.1 hPa NNW 4.8 km/h 12.9 km/h 95 % 0.0 mm 0 W/m2
01:55 1.1 °C 0.4 °C 1015.1 hPa NW 3.2 km/h 12.9 km/h 95 % 0.0 mm 0 W/m2
02:00 1.1 °C 0.3 °C 1015.1 hPa North 4.8 km/h 12.9 km/h 95 % 0.0 mm 0 W/m2
02:15 0.9 °C 0.1 °C 1015.1 hPa NW 4.8 km/h 11.3 km/h 94 % 0.0 mm 0 W/m2
02:20 0.9 °C 0.1 °C 1015.1 hPa North 8.0 km/h 11.3 km/h 94 % 0.0 mm 0 W/m2
02:30 1.1 °C 0.2 °C 1015.1 hPa NNW 1.6 km/h 12.9 km/h 94 % 0.0 mm 0 W/m2
02:35 1.2 °C 0.3 °C 1015.1 hPa Calm   12.9 km/h 94 % 0.0 mm 0 W/m2
02:45 1.2 °C 0.2 °C 1015.1 hPa North 1.6 km/h 14.5 km/h 93 % 0.0 mm 0 W/m2
03:00 1.2 °C 0.2 °C 1015.5 hPa Calm   14.5 km/h 93 % 0.0 mm 0 W/m2
03:10 0.9 °C -0.1 °C 1015.5 hPa NNW 3.2 km/h 9.7 km/h 93 % 0.0 mm 0 W/m2
03:15 0.8 °C -0.2 °C 1015.8 hPa Calm   12.9 km/h 93 % 0.0 mm 0 W/m2
03:40 1.2 °C 0.2 °C 1015.8 hPa NNW 3.2 km/h 17.7 km/h 93 % 0.0 mm 0 W/m2
03:45 1.2 °C 0.2 °C 1015.8 hPa NNE 6.4 km/h 11.3 km/h 93 % 0.0 mm 0 W/m2
03:50 1.1 °C -0.1 °C 1015.8 hPa NW 3.2 km/h 14.5 km/h 92 % 0.0 mm 0 W/m2
03:55 1.1 °C 0.1 °C 1015.8 hPa NW 12.9 km/h 14.5 km/h 93 % 0.0 mm 0 W/m2
04:00 1.1 °C 0.1 °C 1015.8 hPa NW 3.2 km/h 16.1 km/h 93 % 0.0 mm 0 W/m2
04:05 1.1 °C 0.1 °C 1015.8 hPa NNW 3.2 km/h 16.1 km/h 93 % 0.0 mm 0 W/m2
04:10 1.1 °C 0.0 °C 1015.8 hPa NW 11.3 km/h 16.1 km/h 92 % 0.0 mm 0 W/m2
04:20 1.3 °C 0.3 °C 1015.8 hPa NNW 3.2 km/h 12.9 km/h 93 % 0.0 mm 0 W/m2
04:25 1.4 °C 0.2 °C 1015.8 hPa NNW 11.3 km/h 16.1 km/h 92 % 0.0 mm 0 W/m2
04:30 1.3 °C 0.2 °C 1015.8 hPa NNW 3.2 km/h 16.1 km/h 92 % 0.0 mm 0 W/m2
04:40 1.6 °C 0.4 °C 1016.1 hPa NNW 4.8 km/h 22.5 km/h 92 % 0.0 mm 0 W/m2
04:50 1.5 °C 0.2 °C 1015.8 hPa WNW 3.2 km/h 19.3 km/h 91 % 0.0 mm 0 W/m2
05:05 1.2 °C 0.1 °C 1016.1 hPa Calm   14.5 km/h 92 % 0.0 mm 0 W/m2
05:15 0.9 °C -0.2 °C 1016.1 hPa Calm   17.7 km/h 92 % 0.0 mm 0 W/m2
05:20 1.1 °C 0.0 °C 1016.1 hPa NNW 1.6 km/h 17.7 km/h 92 % 0.0 mm 0 W/m2
05:25 1.1 °C 0.0 °C 1016.1 hPa North 12.9 km/h 17.7 km/h 92 % 0.0 mm 0 W/m2
05:30 1.2 °C 0.2 °C 1016.5 hPa North 8.0 km/h 14.5 km/h 93 % 0.0 mm 0 W/m2
05:35 1.1 °C 0.0 °C 1016.5 hPa North 4.8 km/h 14.5 km/h 92 % 0.0 mm 0 W/m2
05:45 1.0 °C -0.2 °C 1016.5 hPa NE 6.4 km/h 14.5 km/h 92 % 0.0 mm 0 W/m2
05:50 0.9 °C -0.1 °C 1016.5 hPa Calm   14.5 km/h 93 % 0.0 mm 0 W/m2
05:55 0.6 °C -0.5 °C 1016.5 hPa NNW 4.8 km/h 9.7 km/h 92 % 0.0 mm 0 W/m2
06:00 0.6 °C -0.4 °C 1016.5 hPa North 4.8 km/h 12.9 km/h 93 % 0.0 mm 0 W/m2
06:05 0.6 °C -0.4 °C 1016.5 hPa North 6.4 km/h 14.5 km/h 93 % 0.0 mm 0 W/m2
06:10 0.7 °C -0.3 °C 1016.8 hPa North 12.9 km/h 16.1 km/h 93 % 0.0 mm 0 W/m2
06:15 0.8 °C -0.2 °C 1016.8 hPa NNE 8.0 km/h 16.1 km/h 93 % 0.0 mm 0 W/m2
06:20 0.9 °C 0.0 °C 1016.8 hPa North 8.0 km/h 16.1 km/h 94 % 0.0 mm 0 W/m2
06:25 0.9 °C 0.1 °C 1016.8 hPa NNW 6.4 km/h 17.7 km/h 94 % 0.0 mm 0 W/m2
06:30 0.9 °C 0.0 °C 1016.8 hPa North 1.6 km/h 17.7 km/h 94 % 0.0 mm 0 W/m2
06:35 0.9 °C 0.1 °C 1016.8 hPa North 3.2 km/h 12.9 km/h 94 % 0.0 mm 0 W/m2
06:40 0.8 °C -0.2 °C 1016.8 hPa North 1.6 km/h 11.3 km/h 93 % 0.0 mm 0 W/m2
06:45 0.8 °C -0.1 °C 1016.8 hPa NNW 3.2 km/h 11.3 km/h 94 % 0.0 mm 0 W/m2
06:50 0.8 °C -0.1 °C 1016.8 hPa North 3.2 km/h 12.9 km/h 94 % 0.0 mm 0 W/m2
06:55 0.9 °C 0.0 °C 1017.2 hPa North 3.2 km/h 12.9 km/h 94 % 0.0 mm 0 W/m2
07:00 0.9 °C 0.0 °C 1017.2 hPa NNW 3.2 km/h 12.9 km/h 94 % 0.0 mm 0 W/m2
07:05 0.9 °C 0.0 °C 1017.2 hPa North 1.6 km/h 12.9 km/h 94 % 0.0 mm 0 W/m2
07:10 0.8 °C -0.1 °C 1017.2 hPa NNW 4.8 km/h 11.3 km/h 94 % 0.0 mm 0 W/m2
07:15 0.9 °C 0.0 °C 1017.2 hPa Calm   11.3 km/h 94 % 0.0 mm 0 W/m2
07:20 1.0 °C 0.1 °C 1017.5 hPa NNW 1.6 km/h 11.3 km/h 94 % 0.0 mm 0 W/m2
07:30 1.2 °C 0.3 °C 1017.5 hPa NNW 6.4 km/h 9.7 km/h 94 % 0.0 mm 0 W/m2
07:40 1.2 °C 0.3 °C 1017.5 hPa NW 3.2 km/h 9.7 km/h 94 % 0.0 mm 0 W/m2
07:45 1.1 °C 0.2 °C 1017.5 hPa NW 1.6 km/h 11.3 km/h 94 % 0.0 mm 0 W/m2
07:55 0.8 °C -0.1 °C 1017.8 hPa North 1.6 km/h 11.3 km/h 94 % 0.0 mm 0 W/m2
08:00 0.7 °C -0.2 °C 1017.5 hPa NNE 4.8 km/h 11.3 km/h 94 % 0.0 mm 0 W/m2
08:05 0.7 °C -0.2 °C 1017.8 hPa North 3.2 km/h 11.3 km/h 94 % 0.0 mm 0 W/m2
08:10 0.7 °C -0.1 °C 1017.8 hPa North 3.2 km/h 11.3 km/h 94 % 0.0 mm 0 W/m2
08:15 0.7 °C -0.2 °C 1017.8 hPa NNW 3.2 km/h 11.3 km/h 94 % 0.0 mm 0 W/m2
08:20 0.8 °C -0.1 °C 1018.2 hPa NNW 1.6 km/h 8.0 km/h 94 % 0.0 mm 0 W/m2
08:25 0.7 °C -0.1 °C 1018.2 hPa Calm   8.0 km/h 94 % 0.0 mm 0 W/m2
08:30 0.8 °C 0.1 °C 1018.2 hPa Calm   8.0 km/h 95 % 0.0 mm 0 W/m2
08:35 0.7 °C -0.1 °C 1018.2 hPa NW 4.8 km/h 9.7 km/h 94 % 0.0 mm 0 W/m2
08:40 0.7 °C -0.1 °C 1018.2 hPa Calm   9.7 km/h 94 % 0.0 mm 5 W/m2
08:50 0.7 °C 0.0 °C 1018.5 hPa NNW 3.2 km/h 9.7 km/h 95 % 0.0 mm 18 W/m2
08:55 0.9 °C 0.2 °C 1018.5 hPa NW 6.4 km/h 11.3 km/h 95 % 0.0 mm 16 W/m2
09:00 1.1 °C 0.3 °C 1018.5 hPa NNW 3.2 km/h 11.3 km/h 95 % 0.0 mm 16 W/m2
09:15 1.2 °C 0.5 °C 1018.5 hPa NNW 9.7 km/h 11.3 km/h 95 % 0.0 mm 19 W/m2
09:20 1.3 °C 0.6 °C 1018.5 hPa NNE 9.7 km/h 12.9 km/h 95 % 0.0 mm 21 W/m2
09:25 1.4 °C 0.7 °C 1018.8 hPa Calm   12.9 km/h 95 % 0.0 mm 23 W/m2
09:30 1.6 °C 0.8 °C 1018.8 hPa NNW 9.7 km/h 12.9 km/h 95 % 0.0 mm 25 W/m2
09:35 1.7 °C 1.0 °C 1018.8 hPa NNW 4.8 km/h 14.5 km/h 95 % 0.0 mm 26 W/m2
09:50 2.1 °C 1.2 °C 1018.8 hPa NW 4.8 km/h 14.5 km/h 94 % 0.0 mm 28 W/m2
09:55 2.2 °C 1.4 °C 1019.2 hPa North 4.8 km/h 16.1 km/h 94 % 0.0 mm 30 W/m2
10:00 2.3 °C 1.5 °C 1019.2 hPa NNW 3.2 km/h 16.1 km/h 94 % 0.0 mm 32 W/m2
10:05 2.5 °C 1.6 °C 1019.2 hPa NW 1.6 km/h 11.3 km/h 94 % 0.0 mm 33 W/m2
10:10 2.7 °C 1.9 °C 1019.2 hPa NNW 8.0 km/h 16.1 km/h 94 % 0.0 mm 109 W/m2
10:15 2.8 °C 1.8 °C 1019.2 hPa North 6.4 km/h 16.1 km/h 93 % 0.0 mm 193 W/m2
10:20 3.1 °C 2.0 °C 1019.2 hPa NNW 14.5 km/h 14.5 km/h 93 % 0.0 mm 171 W/m2
10:30 3.4 °C 2.2 °C 1019.5 hPa NNW 4.8 km/h 16.1 km/h 92 % 0.3 mm 190 W/m2
10:40 3.7 °C 2.4 °C 1019.5 hPa NNW 6.4 km/h 19.3 km/h 91 % 0.3 mm 209 W/m2
10:50 4.2 °C 2.7 °C 1019.5 hPa North 9.7 km/h 14.5 km/h 90 % 0.3 mm 230 W/m2
10:55 4.3 °C 2.7 °C 1019.5 hPa NNW 8.0 km/h 14.5 km/h 89 % 0.3 mm 237 W/m2
11:00 4.6 °C 2.7 °C 1019.9 hPa NNW 11.3 km/h 19.3 km/h 88 % 0.3 mm 243 W/m2
11:05 4.5 °C 2.5 °C 1019.9 hPa NNE 11.3 km/h 19.3 km/h 87 % 0.3 mm 251 W/m2
11:10 4.7 °C 2.7 °C 1019.9 hPa NNW 8.0 km/h 19.3 km/h 87 % 0.3 mm 258 W/m2
11:15 4.8 °C 2.8 °C 1019.9 hPa NNW 11.3 km/h 14.5 km/h 87 % 0.3 mm 267 W/m2
11:25 5.2 °C 3.2 °C 1019.9 hPa NE 6.4 km/h 17.7 km/h 87 % 0.0 mm 283 W/m2
11:30 5.4 °C 3.2 °C 1020.2 hPa NNE 9.7 km/h 16.1 km/h 86 % 0.0 mm 355 W/m2
11:35 5.7 °C 3.2 °C 1020.2 hPa North 4.8 km/h 16.1 km/h 84 % 0.0 mm 218 W/m2
11:40 5.3 °C 3.0 °C 1019.9 hPa NNE 11.3 km/h 17.7 km/h 85 % 0.0 mm 118 W/m2
11:45 5.4 °C 3.2 °C 1019.9 hPa NE 9.7 km/h 17.7 km/h 86 % 0.0 mm 295 W/m2
11:50 5.7 °C 3.5 °C 1019.9 hPa WNW 3.2 km/h 17.7 km/h 86 % 0.0 mm 299 W/m2
12:00 5.8 °C 3.3 °C 1019.9 hPa North 16.1 km/h 22.5 km/h 84 % 0.0 mm 311 W/m2
12:05 6.0 °C 3.5 °C 1020.2 hPa North 8.0 km/h 22.5 km/h 84 % 0.0 mm 313 W/m2
12:10 6.2 °C 3.5 °C 1020.2 hPa NNW 8.0 km/h 17.7 km/h 83 % 0.0 mm 320 W/m2
12:20 6.5 °C 3.6 °C 1020.2 hPa NW 6.4 km/h 14.5 km/h 82 % 0.0 mm 325 W/m2
12:30 6.8 °C 3.7 °C 1020.2 hPa NW 8.0 km/h 22.5 km/h 81 % 0.0 mm 329 W/m2
12:35 7.1 °C 4.1 °C 1020.2 hPa NW 14.5 km/h 22.5 km/h 81 % 0.0 mm 330 W/m2
12:40 7.3 °C 4.1 °C 1020.2 hPa NNE 12.9 km/h 22.5 km/h 80 % 0.0 mm 334 W/m2
12:45 7.2 °C 3.6 °C 1019.9 hPa NNW 6.4 km/h 25.7 km/h 78 % 0.0 mm 332 W/m2
12:55 7.5 °C 3.9 °C 1019.9 hPa North 11.3 km/h 20.9 km/h 78 % 0.0 mm 334 W/m2
13:00 7.6 °C 4.0 °C 1019.9 hPa NNE 6.4 km/h 20.9 km/h 78 % 0.0 mm 334 W/m2
13:05 7.6 °C 3.6 °C 1019.9 hPa North 6.4 km/h 20.9 km/h 76 % 0.0 mm 336 W/m2
13:10 8.0 °C 4.2 °C 1019.9 hPa NNE 8.0 km/h 20.9 km/h 77 % 0.0 mm 338 W/m2
13:20 8.0 °C 3.8 °C 1019.9 hPa North 11.3 km/h 19.3 km/h 75 % 0.0 mm 330 W/m2
13:25 7.8 °C 3.5 °C 1019.9 hPa North 11.3 km/h 27.4 km/h 74 % 0.0 mm 327 W/m2
13:35 8.1 °C 3.8 °C 1019.9 hPa NNE 16.1 km/h 22.5 km/h 74 % 0.0 mm 323 W/m2
13:40 8.2 °C 3.9 °C 1019.9 hPa North 11.3 km/h 22.5 km/h 74 % 0.0 mm 320 W/m2
13:50 8.4 °C 3.8 °C 1019.9 hPa North 8.0 km/h 19.3 km/h 73 % 0.0 mm 311 W/m2
14:00 8.5 °C 3.9 °C 1019.9 hPa North 3.2 km/h 22.5 km/h 73 % 0.0 mm 304 W/m2
14:05 8.7 °C 3.7 °C 1019.9 hPa North 6.4 km/h 19.3 km/h 71 % 0.0 mm 304 W/m2
14:10 8.5 °C 3.3 °C 1019.9 hPa NW 1.6 km/h 19.3 km/h 70 % 0.0 mm 295 W/m2
14:15 8.4 °C 3.7 °C 1019.9 hPa North 9.7 km/h 19.3 km/h 72 % 0.0 mm 318 W/m2
14:20 8.7 °C 4.1 °C 1019.9 hPa NNW 8.0 km/h 17.7 km/h 73 % 0.0 mm 380 W/m2
14:25 8.6 °C 3.6 °C 1019.9 hPa NNE 3.2 km/h 17.7 km/h 71 % 0.0 mm 237 W/m2
14:30 8.4 °C 3.9 °C 1019.9 hPa NNW 11.3 km/h 19.3 km/h 73 % 0.0 mm 188 W/m2
14:35 8.3 °C 3.5 °C 1019.9 hPa North 14.5 km/h 27.4 km/h 72 % 0.0 mm 120 W/m2
14:40 8.2 °C 3.8 °C 1019.9 hPa NE 14.5 km/h 27.4 km/h 74 % 0.0 mm 258 W/m2
14:45 8.2 °C 4.1 °C 1019.9 hPa NNW 8.0 km/h 22.5 km/h 75 % 0.0 mm 276 W/m2
14:55 8.7 °C 4.1 °C 1019.9 hPa North 4.8 km/h 29.0 km/h 73 % 0.0 mm 329 W/m2
15:00 8.9 °C 4.3 °C 1019.9 hPa NE 16.1 km/h 29.0 km/h 73 % 0.0 mm 325 W/m2
15:05 8.7 °C 4.1 °C 1019.9 hPa North 8.0 km/h 29.0 km/h 73 % 0.0 mm 155 W/m2
15:10 8.4 °C 4.3 °C 1019.9 hPa WNW 8.0 km/h 29.0 km/h 75 % 0.0 mm 153 W/m2
15:20 7.9 °C 3.7 °C 1019.9 hPa NNW 12.9 km/h 24.1 km/h 75 % 0.0 mm 49 W/m2
15:25 7.6 °C 3.5 °C 1019.9 hPa NW 8.0 km/h 22.5 km/h 75 % 0.0 mm 44 W/m2
15:30 7.4 °C 3.5 °C 1020.2 hPa NNE 16.1 km/h 27.4 km/h 76 % 0.0 mm 47 W/m2
15:35 7.4 °C 3.8 °C 1020.2 hPa NE 14.5 km/h 27.4 km/h 78 % 0.0 mm 28 W/m2
15:40 7.2 °C 4.0 °C 1020.2 hPa NNE 6.4 km/h 17.7 km/h 80 % 0.0 mm 39 W/m2
15:45 6.9 °C 4.3 °C 1020.5 hPa ENE 8.0 km/h 17.7 km/h 83 % 0.0 mm 32 W/m2
15:50 6.7 °C 4.3 °C 1020.5 hPa North 14.5 km/h 19.3 km/h 85 % 0.0 mm 62 W/m2
15:55 6.4 °C 4.4 °C 1020.5 hPa NNW 6.4 km/h 19.3 km/h 87 % 0.0 mm 51 W/m2
16:00 6.1 °C 4.3 °C 1020.5 hPa North 11.3 km/h 20.9 km/h 88 % 0.0 mm 28 W/m2
16:05 5.8 °C 4.0 °C 1020.5 hPa NNW 3.2 km/h 20.9 km/h 88 % 0.0 mm 23 W/m2
16:15 5.8 °C 4.1 °C 1020.5 hPa NNE 12.9 km/h 24.1 km/h 89 % 0.0 mm 28 W/m2
16:20 5.8 °C 4.2 °C 1020.9 hPa North 3.2 km/h 24.1 km/h 89 % 0.0 mm 26 W/m2
16:25 5.8 °C 3.9 °C 1020.9 hPa NW 11.3 km/h 19.3 km/h 88 % 0.0 mm 25 W/m2
16:30 5.8 °C 3.8 °C 1020.9 hPa NNW 9.7 km/h 25.7 km/h 87 % 0.0 mm 23 W/m2
16:35 5.6 °C 3.8 °C 1020.9 hPa NW 8.0 km/h 25.7 km/h 88 % 0.0 mm 21 W/m2
16:45 5.4 °C 3.6 °C 1021.2 hPa NNW 4.8 km/h 22.5 km/h 88 % 0.0 mm 18 W/m2
16:50 5.3 °C 3.5 °C 1021.2 hPa NE 8.0 km/h 22.5 km/h 88 % 0.0 mm 16 W/m2
16:55 5.1 °C 3.3 °C 1021.2 hPa NNW 14.5 km/h 19.3 km/h 88 % 0.0 mm 14 W/m2
17:05 5.2 °C 3.7 °C 1021.2 hPa NNW 6.4 km/h 20.9 km/h 90 % 0.0 mm 14 W/m2
17:10 5.3 °C 3.7 °C 1021.2 hPa NNW 14.5 km/h 17.7 km/h 89 % 0.0 mm 7 W/m2
17:15 5.1 °C 3.4 °C 1021.6 hPa North 8.0 km/h 16.1 km/h 89 % 0.0 mm 5 W/m2
17:20 5.2 °C 3.7 °C 1021.6 hPa NNW 3.2 km/h 14.5 km/h 90 % 0.0 mm 0 W/m2
17:30 5.4 °C 3.9 °C 1021.6 hPa NW 1.6 km/h 16.1 km/h 90 % 0.0 mm 0 W/m2
17:50 5.3 °C 3.8 °C 1021.6 hPa NW 12.9 km/h 19.3 km/h 90 % 0.0 mm 0 W/m2
17:55 5.4 °C 3.9 °C 1021.6 hPa North 16.1 km/h 20.9 km/h 90 % 0.0 mm 0 W/m2
18:00 5.4 °C 3.7 °C 1021.9 hPa North 6.4 km/h 20.9 km/h 89 % 0.0 mm 0 W/m2
18:05 5.2 °C 3.6 °C 1021.9 hPa North 11.3 km/h 19.3 km/h 89 % 0.0 mm 0 W/m2
18:10 5.3 °C 3.8 °C 1021.9 hPa NE 12.9 km/h 17.7 km/h 90 % 0.0 mm 0 W/m2
18:15 5.3 °C 3.6 °C 1021.9 hPa NNE 6.4 km/h 16.1 km/h 89 % 0.0 mm 0 W/m2
18:25 5.1 °C 3.6 °C 1021.9 hPa North 14.5 km/h 17.7 km/h 90 % 0.0 mm 0 W/m2
18:30 5.1 °C 3.6 °C 1022.2 hPa North 6.4 km/h 14.5 km/h 90 % 0.0 mm 0 W/m2
18:40 4.8 °C 3.3 °C 1022.2 hPa North 9.7 km/h 17.7 km/h 90 % 0.0 mm 0 W/m2
18:45 4.6 °C 3.1 °C 1022.2 hPa NW 9.7 km/h 16.1 km/h 90 % 0.0 mm 0 W/m2
18:55 4.4 °C 3.0 °C 1022.2 hPa NW 4.8 km/h 19.3 km/h 91 % 0.0 mm 0 W/m2
19:05 4.3 °C 2.9 °C 1022.6 hPa NNW 4.8 km/h 22.5 km/h 91 % 0.0 mm 0 W/m2
19:10 4.2 °C 2.8 °C 1022.6 hPa NNE 9.7 km/h 17.7 km/h 91 % 0.0 mm 0 W/m2
19:15 3.9 °C 2.6 °C 1022.6 hPa NNW 12.9 km/h 17.7 km/h 91 % 0.0 mm 0 W/m2
19:20 3.9 °C 2.8 °C 1022.9 hPa North 11.3 km/h 17.7 km/h 92 % 0.0 mm 0 W/m2
19:25 3.9 °C 2.7 °C 1022.9 hPa North 12.9 km/h 20.9 km/h 92 % 0.0 mm 0 W/m2
19:35 3.8 °C 2.7 °C 1022.9 hPa North 3.2 km/h 16.1 km/h 92 % 0.0 mm 0 W/m2
19:40 3.8 °C 2.6 °C 1023.2 hPa NNW 17.7 km/h 17.7 km/h 92 % 0.0 mm 0 W/m2
19:50 3.8 °C 2.7 °C 1023.2 hPa NNW 6.4 km/h 19.3 km/h 93 % 0.0 mm 0 W/m2
19:55 3.7 °C 2.6 °C 1023.2 hPa North 6.4 km/h 19.3 km/h 93 % 0.0 mm 0 W/m2
20:00 3.6 °C 2.5 °C 1023.2 hPa North 4.8 km/h 16.1 km/h 93 % 0.0 mm 0 W/m2
20:15 3.4 °C 2.4 °C 1023.6 hPa NNW 8.0 km/h 9.7 km/h 93 % 0.0 mm 0 W/m2
20:20 3.3 °C 2.3 °C 1023.6 hPa NW 3.2 km/h 11.3 km/h 93 % 0.0 mm 0 W/m2
20:25 3.2 °C 2.1 °C 1023.6 hPa NNW 8.0 km/h 11.3 km/h 93 % 0.0 mm 0 W/m2
20:30 3.0 °C 2.0 °C 1023.6 hPa North 3.2 km/h 11.3 km/h 93 % 0.0 mm 0 W/m2
20:35 2.9 °C 2.1 °C 1023.6 hPa North 6.4 km/h 11.3 km/h 94 % 0.0 mm 0 W/m2
20:45 3.0 °C 2.1 °C 1023.6 hPa North 4.8 km/h 12.9 km/h 94 % 0.0 mm 0 W/m2
20:50 2.9 °C 2.0 °C 1023.9 hPa NNW 3.2 km/h 9.7 km/h 94 % 0.0 mm 0 W/m2
20:55 2.8 °C 2.0 °C 1023.9 hPa North 6.4 km/h 12.9 km/h 94 % 0.0 mm 0 W/m2
21:00 2.9 °C 2.0 °C 1023.9 hPa North 1.6 km/h 14.5 km/h 94 % 0.0 mm 0 W/m2
21:10 2.8 °C 2.0 °C 1023.9 hPa North 6.4 km/h 17.7 km/h 94 % 0.0 mm 0 W/m2
21:15 3.0 °C 2.3 °C 1024.3 hPa NNW 8.0 km/h 12.9 km/h 95 % 0.0 mm 0 W/m2
21:20 3.1 °C 2.3 °C 1024.3 hPa North 9.7 km/h 11.3 km/h 95 % 0.0 mm 0 W/m2
21:25 2.8 °C 2.0 °C 1024.3 hPa North 9.7 km/h 11.3 km/h 94 % 0.0 mm 0 W/m2
21:40 2.7 °C 1.9 °C 1024.3 hPa North 6.4 km/h 14.5 km/h 94 % 0.0 mm 0 W/m2
21:45 2.7 °C 1.9 °C 1024.6 hPa North 8.0 km/h 12.9 km/h 95 % 0.0 mm 0 W/m2
21:55 2.8 °C 2.1 °C 1024.6 hPa North 8.0 km/h 16.1 km/h 95 % 0.0 mm 0 W/m2
22:00 2.7 °C 1.9 °C 1024.6 hPa North 3.2 km/h 14.5 km/h 95 % 0.0 mm 0 W/m2
22:05 2.6 °C 1.9 °C 1024.6 hPa North 4.8 km/h 11.3 km/h 95 % 0.0 mm 0 W/m2
22:15 2.5 °C 1.8 °C 1024.6 hPa NE 6.4 km/h 12.9 km/h 95 % 0.0 mm 0 W/m2
22:30 2.6 °C 1.9 °C 1024.6 hPa Calm   11.3 km/h 95 % 0.0 mm 0 W/m2
22:35 2.4 °C 1.7 °C 1024.9 hPa North 1.6 km/h 9.7 km/h 95 % 0.0 mm 0 W/m2
22:40 2.3 °C 1.6 °C 1024.9 hPa North 6.4 km/h 11.3 km/h 95 % 0.0 mm 0 W/m2
22:45 2.4 °C 1.7 °C 1024.9 hPa North 1.6 km/h 11.3 km/h 95 % 0.0 mm 0 W/m2
22:50 2.3 °C 1.6 °C 1024.9 hPa North 6.4 km/h 11.3 km/h 95 % 0.0 mm 0 W/m2
23:00 2.6 °C 1.8 °C 1024.9 hPa NNW 3.2 km/h 12.9 km/h 95 % 0.0 mm 0 W/m2
23:05 2.5 °C 1.8 °C 1024.9 hPa NNW 3.2 km/h 12.9 km/h 95 % 0.0 mm 0 W/m2
23:10 2.5 °C 1.8 °C 1024.9 hPa North 8.0 km/h 11.3 km/h 95 % 0.0 mm 0 W/m2
23:20 2.8 °C 2.1 °C 1024.9 hPa NW 1.6 km/h 9.7 km/h 95 % 0.0 mm 0 W/m2
23:25 3.0 °C 2.4 °C 1024.9 hPa NNE 6.4 km/h 12.9 km/h 96 % 0.0 mm 0 W/m2
23:30 3.2 °C 2.6 °C 1024.9 hPa NE 3.2 km/h 12.9 km/h 96 % 0.0 mm 0 W/m2
23:35 3.3 °C 2.6 °C 1024.9 hPa North 1.6 km/h 12.9 km/h 95 % 0.0 mm 0 W/m2
23:40 3.3 °C 2.6 °C 1024.9 hPa NNW 6.4 km/h 11.3 km/h 95 % 0.0 mm 0 W/m2
23:45 3.3 °C 2.6 °C 1024.9 hPa NNE 1.6 km/h 11.3 km/h 95 % 0.0 mm 0 W/m2
23:50 3.2 °C 2.5 °C 1025.3 hPa Calm   9.7 km/h 95 % 0.0 mm 0 W/m2
23:55 3.3 °C 2.6 °C 1025.3 hPa Calm   11.3 km/h 95 % 0.0 mm 0 W/m2
Avec l'autorisation de Weather Underground - 1.5 mb